Akron, Michigan
Current Conditions -  °F | °C
As of 7:15 AM on Friday 31 Oct 2014 (Local Time) from KCFS Reporting Station
Light Rain Light Rain  
Wind Chill: 42°   Ceiling: 1100
Heat Index: 42°   Visibility: 4mi
Dew Point: 40°   Wind: 0mph
Humidity: 95%   Direction: NA
Pressure: 29.88"   Gusts: NA
Location:  43.57°N, 83.51°W
Report Text: KCFS 311115Z AUTO 00000KT 4SM -RA SCT008 OVC011 06/05 A2988 RMK AO2 T00550047
Loading
Personal Weather Stations






























Interactive Weather Map
Tropical Storm Tracking
New forecast layout! Learn more

10-Day Weather Forecast

Advertisements
Track Severe Weather on mobile